Terminal Aerodrome Forecast
Issued by NWS Sioux Falls, SD

Home | Current Version | Previous Version | Text Only | Print | Product List | Glossary On
Versions: 1 2 3 4 5 6 7 8 9 10 11 12 13 14 15 16 17 18 19
000
FTUS43 KFSD 291150
TAFFSD
TAF
KFSD 291150Z 2912/3012 18005KT P6SM SCT015 OVC200
      TEMPO 2912/2913 4SM BR SCT007 OVC012
     FM291300 27004KT 6SM BR BKN007 OVC015
     FM291600 VRB05KT P6SM BKN015 OVC070
      TEMPO 2917/2920 6SM -SHRA SCT020 OVC050
     FM300000 34005KT P6SM SCT040 BKN080
     FM300900 34005KT 4SM BR SCT040=

USA.gov is the U.S. government's official web portal to all federal, state and local government web resources and services.